sensor_id;sensor_type;location;lat;lon;timestamp;P1;durP1;ratioP1;P2;durP2;ratioP2
50681;SDS011;36779;52.168;20.878;2023-08-21T00:02:28;16.90;;;12.20;;
50681;SDS011;36779;52.168;20.878;2023-08-21T00:05:03;17.90;;;11.10;;
50681;SDS011;36779;52.168;20.878;2023-08-21T00:07:36;19.40;;;12.40;;
50681;SDS011;36779;52.168;20.878;2023-08-21T00:10:09;14.10;;;11.00;;
50681;SDS011;36779;52.168;20.878;2023-08-21T00:12:43;15.70;;;13.00;;
50681;SDS011;36779;52.168;20.878;2023-08-21T00:15:16;19.30;;;12.80;;
50681;SDS011;36779;52.168;20.878;2023-08-21T00:17:51;18.90;;;11.20;;
50681;SDS011;36779;52.168;20.878;2023-08-21T00:20:26;17.40;;;12.00;;
50681;SDS011;36779;52.168;20.878;2023-08-21T00:22:58;16.10;;;12.40;;
50681;SDS011;36779;52.168;20.878;2023-08-21T00:25:31;15.20;;;10.90;;
50681;SDS011;36779;52.168;20.878;2023-08-21T00:28:04;16.80;;;11.60;;
50681;SDS011;36779;52.168;20.878;2023-08-21T00:30:38;15.00;;;11.10;;
50681;SDS011;36779;52.168;20.878;2023-08-21T00:33:15;15.30;;;11.70;;
50681;SDS011;36779;52.168;20.878;2023-08-21T00:35:47;17.20;;;10.60;;
50681;SDS011;36779;52.168;20.878;2023-08-21T00:38:20;19.20;;;11.80;;
50681;SDS011;36779;52.168;20.878;2023-08-21T00:40:53;15.10;;;11.40;;
50681;SDS011;36779;52.168;20.878;2023-08-21T00:43:26;14.80;;;10.80;;
50681;SDS011;36779;52.168;20.878;2023-08-21T00:45:59;17.70;;;11.50;;
50681;SDS011;36779;52.168;20.878;2023-08-21T00:48:35;15.80;;;11.40;;
50681;SDS011;36779;52.168;20.878;2023-08-21T00:51:08;17.20;;;12.00;;
50681;SDS011;36779;52.168;20.878;2023-08-21T00:53:41;16.90;;;11.50;;
50681;SDS011;36779;52.168;20.878;2023-08-21T00:56:15;16.90;;;11.50;;
50681;SDS011;36779;52.168;20.878;2023-08-21T00:58:47;16.40;;;11.50;;
50681;SDS011;36779;52.168;20.878;2023-08-21T01:01:21;16.40;;;11.50;;
50681;SDS011;36779;52.168;20.878;2023-08-21T01:03:56;19.70;;;12.20;;
50681;SDS011;36779;52.168;20.878;2023-08-21T01:06:31;21.10;;;12.90;;
50681;SDS011;36779;52.168;20.878;2023-08-21T01:09:06;15.90;;;11.50;;
50681;SDS011;36779;52.168;20.878;2023-08-21T01:11:45;16.30;;;11.40;;
50681;SDS011;36779;52.168;20.878;2023-08-21T01:14:31;20.00;;;12.80;;
50681;SDS011;36779;52.168;20.878;2023-08-21T01:17:09;17.50;;;11.70;;
50681;SDS011;36779;52.168;20.878;2023-08-21T01:19:46;17.30;;;11.10;;
50681;SDS011;36779;52.168;20.878;2023-08-21T01:22:20;17.70;;;11.80;;
50681;SDS011;36779;52.168;20.878;2023-08-21T01:24:55;17.20;;;11.80;;
50681;SDS011;36779;52.168;20.878;2023-08-21T01:27:28;18.00;;;12.90;;
50681;SDS011;36779;52.168;20.878;2023-08-21T01:30:00;17.20;;;11.00;;
50681;SDS011;36779;52.168;20.878;2023-08-21T01:32:40;15.10;;;10.90;;
50681;SDS011;36779;52.168;20.878;2023-08-21T01:35:19;19.80;;;12.00;;
50681;SDS011;36779;52.168;20.878;2023-08-21T01:37:56;16.90;;;12.00;;
50681;SDS011;36779;52.168;20.878;2023-08-21T01:40:29;20.10;;;12.10;;
50681;SDS011;36779;52.168;20.878;2023-08-21T01:43:01;17.60;;;10.90;;
50681;SDS011;36779;52.168;20.878;2023-08-21T01:45:39;16.70;;;11.20;;
50681;SDS011;36779;52.168;20.878;2023-08-21T01:48:12;15.90;;;10.90;;
50681;SDS011;36779;52.168;20.878;2023-08-21T01:50:44;17.00;;;10.60;;
50681;SDS011;36779;52.168;20.878;2023-08-21T01:53:19;17.30;;;12.00;;
50681;SDS011;36779;52.168;20.878;2023-08-21T01:55:51;17.00;;;12.30;;
50681;SDS011;36779;52.168;20.878;2023-08-21T01:58:26;19.50;;;11.50;;
50681;SDS011;36779;52.168;20.878;2023-08-21T02:01:01;15.80;;;10.90;;
50681;SDS011;36779;52.168;20.878;2023-08-21T02:03:35;19.80;;;11.80;;
50681;SDS011;36779;52.168;20.878;2023-08-21T02:06:12;18.90;;;12.80;;
50681;SDS011;36779;52.168;20.878;2023-08-21T02:08:48;15.70;;;11.20;;
50681;SDS011;36779;52.168;20.878;2023-08-21T02:11:21;17.20;;;10.70;;
50681;SDS011;36779;52.168;20.878;2023-08-21T02:13:54;16.20;;;11.80;;
50681;SDS011;36779;52.168;20.878;2023-08-21T02:16:29;15.40;;;10.70;;
50681;SDS011;36779;52.168;20.878;2023-08-21T02:19:01;18.40;;;11.00;;
50681;SDS011;36779;52.168;20.878;2023-08-21T02:21:34;16.50;;;11.20;;
50681;SDS011;36779;52.168;20.878;2023-08-21T02:24:07;17.10;;;10.80;;
50681;SDS011;36779;52.168;20.878;2023-08-21T02:26:40;17.40;;;12.00;;
50681;SDS011;36779;52.168;20.878;2023-08-21T02:29:15;15.40;;;11.10;;
50681;SDS011;36779;52.168;20.878;2023-08-21T02:31:48;16.70;;;11.50;;
50681;SDS011;36779;52.168;20.878;2023-08-21T02:34:20;17.60;;;11.40;;
50681;SDS011;36779;52.168;20.878;2023-08-21T02:36:55;20.00;;;12.00;;
50681;SDS011;36779;52.168;20.878;2023-08-21T02:39:29;18.00;;;11.60;;
50681;SDS011;36779;52.168;20.878;2023-08-21T02:42:02;16.80;;;11.50;;
50681;SDS011;36779;52.168;20.878;2023-08-21T02:44:34;16.20;;;10.60;;
50681;SDS011;36779;52.168;20.878;2023-08-21T02:47:06;17.00;;;11.10;;
50681;SDS011;36779;52.168;20.878;2023-08-21T02:49:41;19.20;;;11.60;;
50681;SDS011;36779;52.168;20.878;2023-08-21T02:52:14;18.00;;;11.30;;
50681;SDS011;36779;52.168;20.878;2023-08-21T02:54:49;19.40;;;11.30;;
50681;SDS011;36779;52.168;20.878;2023-08-21T02:57:22;19.60;;;10.90;;
50681;SDS011;36779;52.168;20.878;2023-08-21T02:59:57;16.70;;;12.30;;
50681;SDS011;36779;52.168;20.878;2023-08-21T03:02:33;19.10;;;11.80;;
50681;SDS011;36779;52.168;20.878;2023-08-21T03:05:09;19.00;;;11.30;;
50681;SDS011;36779;52.168;20.878;2023-08-21T03:07:45;16.60;;;10.00;;
50681;SDS011;36779;52.168;20.878;2023-08-21T03:10:18;17.10;;;10.70;;
50681;SDS011;36779;52.168;20.878;2023-08-21T03:12:52;16.60;;;11.70;;
50681;SDS011;36779;52.168;20.878;2023-08-21T03:15:24;17.90;;;11.60;;
50681;SDS011;36779;52.168;20.878;2023-08-21T03:17:57;17.10;;;11.40;;
50681;SDS011;36779;52.168;20.878;2023-08-21T03:20:30;16.70;;;11.90;;
50681;SDS011;36779;52.168;20.878;2023-08-21T03:23:05;18.30;;;11.90;;
50681;SDS011;36779;52.168;20.878;2023-08-21T03:25:39;16.30;;;11.20;;
50681;SDS011;36779;52.168;20.878;2023-08-21T03:28:12;18.40;;;11.50;;
50681;SDS011;36779;52.168;20.878;2023-08-21T03:30:45;18.00;;;11.70;;
50681;SDS011;36779;52.168;20.878;2023-08-21T03:33:21;17.20;;;11.00;;
50681;SDS011;36779;52.168;20.878;2023-08-21T03:35:54;17.90;;;11.60;;
50681;SDS011;36779;52.168;20.878;2023-08-21T03:38:30;18.30;;;11.70;;
50681;SDS011;36779;52.168;20.878;2023-08-21T03:41:03;17.50;;;11.90;;
50681;SDS011;36779;52.168;20.878;2023-08-21T03:43:36;17.10;;;11.10;;
50681;SDS011;36779;52.168;20.878;2023-08-21T03:46:08;15.40;;;11.00;;
50681;SDS011;36779;52.168;20.878;2023-08-21T03:48:45;19.60;;;11.00;;
50681;SDS011;36779;52.168;20.878;2023-08-21T03:51:22;19.50;;;12.00;;
50681;SDS011;36779;52.168;20.878;2023-08-21T03:53:54;17.60;;;10.90;;
50681;SDS011;36779;52.168;20.878;2023-08-21T03:56:27;19.30;;;12.10;;
50681;SDS011;36779;52.168;20.878;2023-08-21T03:58:59;18.50;;;11.20;;
50681;SDS011;36779;52.168;20.878;2023-08-21T04:01:32;21.20;;;12.10;;
50681;SDS011;36779;52.168;20.878;2023-08-21T04:04:06;18.90;;;11.80;;
50681;SDS011;36779;52.168;20.878;2023-08-21T04:06:44;18.10;;;11.20;;
50681;SDS011;36779;52.168;20.878;2023-08-21T04:09:17;18.20;;;11.40;;
50681;SDS011;36779;52.168;20.878;2023-08-21T04:11:49;15.70;;;11.20;;
50681;SDS011;36779;52.168;20.878;2023-08-21T04:14:22;20.10;;;12.10;;
50681;SDS011;36779;52.168;20.878;2023-08-21T04:16:57;16.70;;;11.20;;
50681;SDS011;36779;52.168;20.878;2023-08-21T04:19:30;21.20;;;11.70;;
50681;SDS011;36779;52.168;20.878;2023-08-21T04:22:06;17.30;;;11.00;;
50681;SDS011;36779;52.168;20.878;2023-08-21T04:24:41;18.60;;;10.90;;
50681;SDS011;36779;52.168;20.878;2023-08-21T04:27:13;20.60;;;12.80;;
50681;SDS011;36779;52.168;20.878;2023-08-21T04:29:46;18.40;;;12.60;;
50681;SDS011;36779;52.168;20.878;2023-08-21T04:32:18;18.40;;;11.40;;
50681;SDS011;36779;52.168;20.878;2023-08-21T04:34:52;16.40;;;11.60;;
50681;SDS011;36779;52.168;20.878;2023-08-21T04:37:24;18.90;;;12.30;;
50681;SDS011;36779;52.168;20.878;2023-08-21T04:39:59;19.20;;;11.70;;
50681;SDS011;36779;52.168;20.878;2023-08-21T04:42:44;16.90;;;12.10;;
50681;SDS011;36779;52.168;20.878;2023-08-21T04:45:17;16.40;;;11.40;;
50681;SDS011;36779;52.168;20.878;2023-08-21T04:47:51;15.70;;;10.90;;
50681;SDS011;36779;52.168;20.878;2023-08-21T04:50:27;19.30;;;12.70;;
50681;SDS011;36779;52.168;20.878;2023-08-21T04:53:00;21.40;;;14.50;;
50681;SDS011;36779;52.168;20.878;2023-08-21T04:55:33;20.90;;;14.00;;
50681;SDS011;36779;52.168;20.878;2023-08-21T04:58:06;18.40;;;15.70;;
50681;SDS011;36779;52.168;20.878;2023-08-21T05:00:40;20.20;;;16.70;;
50681;SDS011;36779;52.168;20.878;2023-08-21T05:03:14;19.20;;;17.20;;
50681;SDS011;36779;52.168;20.878;2023-08-21T05:05:53;17.50;;;15.80;;
50681;SDS011;36779;52.168;20.878;2023-08-21T05:08:25;19.60;;;16.20;;
50681;SDS011;36779;52.168;20.878;2023-08-21T05:10:58;18.50;;;16.00;;
50681;SDS011;36779;52.168;20.878;2023-08-21T05:13:33;20.40;;;16.00;;
50681;SDS011;36779;52.168;20.878;2023-08-21T05:16:07;19.90;;;15.60;;
50681;SDS011;36779;52.168;20.878;2023-08-21T05:18:48;20.20;;;16.30;;
50681;SDS011;36779;52.168;20.878;2023-08-21T05:21:20;20.70;;;14.10;;
50681;SDS011;36779;52.168;20.878;2023-08-21T05:23:54;17.50;;;12.90;;
50681;SDS011;36779;52.168;20.878;2023-08-21T05:26:27;19.40;;;14.60;;
50681;SDS011;36779;52.168;20.878;2023-08-21T05:29:00;16.90;;;15.00;;
50681;SDS011;36779;52.168;20.878;2023-08-21T05:31:32;19.30;;;15.00;;
50681;SDS011;36779;52.168;20.878;2023-08-21T05:34:05;18.70;;;15.60;;
50681;SDS011;36779;52.168;20.878;2023-08-21T05:36:40;22.80;;;16.30;;
50681;SDS011;36779;52.168;20.878;2023-08-21T05:39:12;17.60;;;13.10;;
50681;SDS011;36779;52.168;20.878;2023-08-21T05:41:45;19.40;;;13.10;;
50681;SDS011;36779;52.168;20.878;2023-08-21T05:44:17;24.00;;;13.60;;
50681;SDS011;36779;52.168;20.878;2023-08-21T05:46:53;20.30;;;13.40;;
50681;SDS011;36779;52.168;20.878;2023-08-21T05:49:26;18.30;;;12.90;;
50681;SDS011;36779;52.168;20.878;2023-08-21T05:51:59;19.60;;;13.40;;
50681;SDS011;36779;52.168;20.878;2023-08-21T05:54:32;17.10;;;12.60;;
50681;SDS011;36779;52.168;20.878;2023-08-21T05:57:11;17.10;;;12.60;;
50681;SDS011;36779;52.168;20.878;2023-08-21T05:59:44;20.70;;;13.80;;
50681;SDS011;36779;52.168;20.878;2023-08-21T06:02:17;26.00;;;14.50;;
50681;SDS011;36779;52.168;20.878;2023-08-21T06:04:50;21.10;;;13.30;;
50681;SDS011;36779;52.168;20.878;2023-08-21T06:07:26;18.70;;;13.20;;
50681;SDS011;36779;52.168;20.878;2023-08-21T06:10:02;17.60;;;13.90;;
50681;SDS011;36779;52.168;20.878;2023-08-21T06:12:41;17.70;;;13.40;;
50681;SDS011;36779;52.168;20.878;2023-08-21T06:15:14;18.50;;;12.70;;
50681;SDS011;36779;52.168;20.878;2023-08-21T06:17:46;18.40;;;13.50;;
50681;SDS011;36779;52.168;20.878;2023-08-21T06:20:19;17.10;;;12.90;;
50681;SDS011;36779;52.168;20.878;2023-08-21T06:22:52;23.50;;;14.80;;
50681;SDS011;36779;52.168;20.878;2023-08-21T06:25:33;19.40;;;14.70;;
50681;SDS011;36779;52.168;20.878;2023-08-21T06:28:08;20.40;;;13.80;;
50681;SDS011;36779;52.168;20.878;2023-08-21T06:30:41;20.70;;;13.60;;
50681;SDS011;36779;52.168;20.878;2023-08-21T06:33:14;17.80;;;14.60;;
50681;SDS011;36779;52.168;20.878;2023-08-21T06:35:48;19.40;;;13.90;;
50681;SDS011;36779;52.168;20.878;2023-08-21T06:38:21;19.80;;;13.90;;
50681;SDS011;36779;52.168;20.878;2023-08-21T06:40:53;19.70;;;14.40;;
50681;SDS011;36779;52.168;20.878;2023-08-21T06:43:25;17.20;;;13.90;;
50681;SDS011;36779;52.168;20.878;2023-08-21T06:45:58;19.40;;;12.90;;
50681;SDS011;36779;52.168;20.878;2023-08-21T06:48:31;18.10;;;13.70;;
50681;SDS011;36779;52.168;20.878;2023-08-21T06:51:04;18.30;;;13.70;;
50681;SDS011;36779;52.168;20.878;2023-08-21T06:53:39;22.80;;;15.20;;
50681;SDS011;36779;52.168;20.878;2023-08-21T06:56:13;19.00;;;14.00;;
50681;SDS011;36779;52.168;20.878;2023-08-21T06:58:46;21.70;;;13.50;;
50681;SDS011;36779;52.168;20.878;2023-08-21T07:01:21;23.80;;;15.90;;
50681;SDS011;36779;52.168;20.878;2023-08-21T07:03:54;22.10;;;15.60;;
50681;SDS011;36779;52.168;20.878;2023-08-21T07:06:28;20.70;;;13.90;;
50681;SDS011;36779;52.168;20.878;2023-08-21T07:09:01;22.40;;;16.10;;
50681;SDS011;36779;52.168;20.878;2023-08-21T07:11:34;22.40;;;15.10;;
50681;SDS011;36779;52.168;20.878;2023-08-21T07:14:06;23.50;;;14.80;;
50681;SDS011;36779;52.168;20.878;2023-08-21T07:16:41;20.10;;;14.50;;
50681;SDS011;36779;52.168;20.878;2023-08-21T07:19:13;18.40;;;12.50;;
50681;SDS011;36779;52.168;20.878;2023-08-21T07:21:47;18.40;;;13.80;;
50681;SDS011;36779;52.168;20.878;2023-08-21T07:24:19;22.30;;;14.10;;
50681;SDS011;36779;52.168;20.878;2023-08-21T07:26:51;18.90;;;13.20;;
50681;SDS011;36779;52.168;20.878;2023-08-21T07:29:23;22.40;;;13.40;;
50681;SDS011;36779;52.168;20.878;2023-08-21T07:31:55;17.60;;;14.30;;
50681;SDS011;36779;52.168;20.878;2023-08-21T07:34:32;19.90;;;14.70;;
50681;SDS011;36779;52.168;20.878;2023-08-21T07:37:04;19.60;;;13.60;;
50681;SDS011;36779;52.168;20.878;2023-08-21T07:39:39;18.50;;;14.00;;
50681;SDS011;36779;52.168;20.878;2023-08-21T07:42:12;18.10;;;13.50;;
50681;SDS011;36779;52.168;20.878;2023-08-21T07:44:45;20.50;;;13.30;;
50681;SDS011;36779;52.168;20.878;2023-08-21T07:47:17;21.30;;;14.30;;
50681;SDS011;36779;52.168;20.878;2023-08-21T07:49:49;19.60;;;13.40;;
50681;SDS011;36779;52.168;20.878;2023-08-21T07:52:24;18.70;;;14.00;;
50681;SDS011;36779;52.168;20.878;2023-08-21T07:54:57;20.00;;;14.70;;
50681;SDS011;36779;52.168;20.878;2023-08-21T07:57:30;16.90;;;13.00;;
50681;SDS011;36779;52.168;20.878;2023-08-21T08:00:02;18.50;;;14.00;;
50681;SDS011;36779;52.168;20.878;2023-08-21T08:02:41;19.40;;;14.50;;
50681;SDS011;36779;52.168;20.878;2023-08-21T08:05:14;19.60;;;15.00;;
50681;SDS011;36779;52.168;20.878;2023-08-21T08:07:46;22.60;;;15.20;;
50681;SDS011;36779;52.168;20.878;2023-08-21T08:10:18;22.30;;;15.10;;
50681;SDS011;36779;52.168;20.878;2023-08-21T08:12:52;18.10;;;15.10;;
50681;SDS011;36779;52.168;20.878;2023-08-21T08:15:25;18.60;;;15.60;;
50681;SDS011;36779;52.168;20.878;2023-08-21T08:17:59;17.40;;;14.30;;
50681;SDS011;36779;52.168;20.878;2023-08-21T08:20:32;18.50;;;15.80;;
50681;SDS011;36779;52.168;20.878;2023-08-21T08:23:06;16.30;;;14.50;;
50681;SDS011;36779;52.168;20.878;2023-08-21T08:25:42;20.00;;;14.30;;
50681;SDS011;36779;52.168;20.878;2023-08-21T08:28:17;17.10;;;15.40;;
50681;SDS011;36779;52.168;20.878;2023-08-21T08:30:51;17.10;;;15.40;;
50681;SDS011;36779;52.168;20.878;2023-08-21T08:33:24;17.60;;;15.10;;
50681;SDS011;36779;52.168;20.878;2023-08-21T08:35:59;18.10;;;16.20;;
50681;SDS011;36779;52.168;20.878;2023-08-21T08:38:32;17.20;;;15.50;;
50681;SDS011;36779;52.168;20.878;2023-08-21T08:41:05;16.40;;;14.70;;
50681;SDS011;36779;52.168;20.878;2023-08-21T08:46:13;15.10;;;11.90;;
50681;SDS011;36779;52.168;20.878;2023-08-21T08:48:47;16.20;;;14.00;;
50681;SDS011;36779;52.168;20.878;2023-08-21T08:51:20;16.20;;;13.30;;
50681;SDS011;36779;52.168;20.878;2023-08-21T08:53:53;15.20;;;13.70;;
50681;SDS011;36779;52.168;20.878;2023-08-21T08:56:26;15.20;;;13.50;;
50681;SDS011;36779;52.168;20.878;2023-08-21T08:58:58;16.30;;;13.50;;
50681;SDS011;36779;52.168;20.878;2023-08-21T09:01:31;13.60;;;12.10;;
50681;SDS011;36779;52.168;20.878;2023-08-21T09:04:03;13.50;;;12.20;;
50681;SDS011;36779;52.168;20.878;2023-08-21T09:06:36;13.40;;;11.80;;
50681;SDS011;36779;52.168;20.878;2023-08-21T09:09:08;12.70;;;11.50;;
50681;SDS011;36779;52.168;20.878;2023-08-21T09:11:45;12.60;;;11.00;;
50681;SDS011;36779;52.168;20.878;2023-08-21T09:14:21;13.90;;;12.20;;
50681;SDS011;36779;52.168;20.878;2023-08-21T09:17:00;12.40;;;11.20;;
50681;SDS011;36779;52.168;20.878;2023-08-21T09:19:34;10.30;;;9.30;;
50681;SDS011;36779;52.168;20.878;2023-08-21T09:22:10;11.70;;;10.20;;
50681;SDS011;36779;52.168;20.878;2023-08-21T09:27:37;9.20;;;8.40;;
50681;SDS011;36779;52.168;20.878;2023-08-21T09:30:13;8.20;;;7.40;;
50681;SDS011;36779;52.168;20.878;2023-08-21T09:32:56;7.60;;;6.80;;
50681;SDS011;36779;52.168;20.878;2023-08-21T09:35:32;8.50;;;7.60;;
50681;SDS011;36779;52.168;20.878;2023-08-21T09:38:05;8.40;;;7.60;;
50681;SDS011;36779;52.168;20.878;2023-08-21T09:40:40;8.60;;;7.80;;
50681;SDS011;36779;52.168;20.878;2023-08-21T09:43:21;9.60;;;8.20;;
50681;SDS011;36779;52.168;20.878;2023-08-21T09:45:54;7.70;;;7.00;;
50681;SDS011;36779;52.168;20.878;2023-08-21T09:48:27;6.90;;;6.30;;
50681;SDS011;36779;52.168;20.878;2023-08-21T09:51:01;7.50;;;6.50;;
50681;SDS011;36779;52.168;20.878;2023-08-21T09:53:34;11.10;;;6.90;;
50681;SDS011;36779;52.168;20.878;2023-08-21T09:56:08;6.90;;;6.10;;
50681;SDS011;36779;52.168;20.878;2023-08-21T09:58:46;7.30;;;6.50;;
50681;SDS011;36779;52.168;20.878;2023-08-21T10:01:23;8.60;;;6.20;;
50681;SDS011;36779;52.168;20.878;2023-08-21T10:04:04;6.70;;;6.10;;
50681;SDS011;36779;52.168;20.878;2023-08-21T10:06:40;6.80;;;6.20;;
50681;SDS011;36779;52.168;20.878;2023-08-21T10:09:14;9.40;;;6.30;;
50681;SDS011;36779;52.168;20.878;2023-08-21T10:11:47;6.80;;;6.10;;
50681;SDS011;36779;52.168;20.878;2023-08-21T10:14:23;6.90;;;6.00;;
50681;SDS011;36779;52.168;20.878;2023-08-21T10:16:59;7.00;;;6.30;;
50681;SDS011;36779;52.168;20.878;2023-08-21T10:19:43;6.20;;;5.60;;
50681;SDS011;36779;52.168;20.878;2023-08-21T10:22:41;6.40;;;5.60;;
50681;SDS011;36779;52.168;20.878;2023-08-21T10:25:15;6.00;;;5.40;;
50681;SDS011;36779;52.168;20.878;2023-08-21T10:27:59;5.20;;;4.70;;
50681;SDS011;36779;52.168;20.878;2023-08-21T10:30:35;5.00;;;4.60;;
50681;SDS011;36779;52.168;20.878;2023-08-21T10:33:07;4.60;;;4.20;;
50681;SDS011;36779;52.168;20.878;2023-08-21T10:35:40;4.70;;;4.00;;
50681;SDS011;36779;52.168;20.878;2023-08-21T10:38:14;4.70;;;4.30;;
50681;SDS011;36779;52.168;20.878;2023-08-21T10:43:40;4.30;;;3.90;;
50681;SDS011;36779;52.168;20.878;2023-08-21T10:46:14;4.60;;;3.70;;
50681;SDS011;36779;52.168;20.878;2023-08-21T10:48:47;4.20;;;3.90;;
50681;SDS011;36779;52.168;20.878;2023-08-21T10:51:19;4.30;;;3.90;;
50681;SDS011;36779;52.168;20.878;2023-08-21T10:53:54;4.10;;;3.80;;
50681;SDS011;36779;52.168;20.878;2023-08-21T10:56:26;5.50;;;3.80;;
50681;SDS011;36779;52.168;20.878;2023-08-21T10:59:06;6.80;;;4.20;;
50681;SDS011;36779;52.168;20.878;2023-08-21T11:01:43;4.60;;;4.20;;
50681;SDS011;36779;52.168;20.878;2023-08-21T11:04:16;5.80;;;4.40;;
50681;SDS011;36779;52.168;20.878;2023-08-21T11:06:50;4.30;;;3.90;;
50681;SDS011;36779;52.168;20.878;2023-08-21T11:09:23;3.90;;;3.60;;
50681;SDS011;36779;52.168;20.878;2023-08-21T11:11:55;4.10;;;3.70;;
50681;SDS011;36779;52.168;20.878;2023-08-21T11:14:43;5.00;;;3.80;;
50681;SDS011;36779;52.168;20.878;2023-08-21T11:17:19;4.30;;;3.50;;
50681;SDS011;36779;52.168;20.878;2023-08-21T11:19:52;5.00;;;3.90;;
50681;SDS011;36779;52.168;20.878;2023-08-21T11:22:32;4.90;;;3.80;;
50681;SDS011;36779;52.168;20.878;2023-08-21T11:25:05;4.10;;;3.80;;
50681;SDS011;36779;52.168;20.878;2023-08-21T11:27:39;3.90;;;3.40;;
50681;SDS011;36779;52.168;20.878;2023-08-21T11:30:12;5.50;;;3.20;;
50681;SDS011;36779;52.168;20.878;2023-08-21T11:32:45;3.80;;;3.50;;
50681;SDS011;36779;52.168;20.878;2023-08-21T11:35:17;3.30;;;3.00;;
50681;SDS011;36779;52.168;20.878;2023-08-21T11:37:52;4.90;;;3.50;;
50681;SDS011;36779;52.168;20.878;2023-08-21T11:40:24;3.80;;;3.40;;
50681;SDS011;36779;52.168;20.878;2023-08-21T11:43:01;3.50;;;3.20;;
50681;SDS011;36779;52.168;20.878;2023-08-21T11:45:34;4.00;;;3.60;;
50681;SDS011;36779;52.168;20.878;2023-08-21T11:48:26;4.30;;;3.90;;
50681;SDS011;36779;52.168;20.878;2023-08-21T11:50:58;5.00;;;4.10;;
50681;SDS011;36779;52.168;20.878;2023-08-21T11:53:32;4.00;;;3.60;;
50681;SDS011;36779;52.168;20.878;2023-08-21T11:56:10;3.90;;;3.60;;
50681;SDS011;36779;52.168;20.878;2023-08-21T11:58:49;4.40;;;3.20;;
50681;SDS011;36779;52.168;20.878;2023-08-21T12:01:22;4.50;;;3.30;;
50681;SDS011;36779;52.168;20.878;2023-08-21T12:03:54;4.50;;;2.70;;
50681;SDS011;36779;52.168;20.878;2023-08-21T12:06:27;4.00;;;2.30;;
50681;SDS011;36779;52.168;20.878;2023-08-21T12:09:01;4.00;;;2.90;;
50681;SDS011;36779;52.168;20.878;2023-08-21T12:11:35;5.90;;;3.00;;
50681;SDS011;36779;52.168;20.878;2023-08-21T12:14:07;4.90;;;2.80;;
50681;SDS011;36779;52.168;20.878;2023-08-21T12:16:42;2.70;;;2.50;;
50681;SDS011;36779;52.168;20.878;2023-08-21T12:19:18;3.20;;;2.60;;
50681;SDS011;36779;52.168;20.878;2023-08-21T12:21:51;3.60;;;3.00;;
50681;SDS011;36779;52.168;20.878;2023-08-21T12:24:23;4.20;;;2.80;;
50681;SDS011;36779;52.168;20.878;2023-08-21T12:26:56;3.90;;;3.00;;
50681;SDS011;36779;52.168;20.878;2023-08-21T12:29:28;4.10;;;2.80;;
50681;SDS011;36779;52.168;20.878;2023-08-21T12:32:01;3.20;;;2.70;;
50681;SDS011;36779;52.168;20.878;2023-08-21T12:34:33;3.60;;;2.60;;
50681;SDS011;36779;52.168;20.878;2023-08-21T12:37:06;3.90;;;2.70;;
50681;SDS011;36779;52.168;20.878;2023-08-21T12:39:40;3.00;;;2.70;;
50681;SDS011;36779;52.168;20.878;2023-08-21T12:42:13;3.00;;;2.60;;
50681;SDS011;36779;52.168;20.878;2023-08-21T12:44:45;4.40;;;2.20;;
50681;SDS011;36779;52.168;20.878;2023-08-21T12:47:17;3.70;;;2.30;;
50681;SDS011;36779;52.168;20.878;2023-08-21T12:49:50;2.60;;;2.00;;
50681;SDS011;36779;52.168;20.878;2023-08-21T12:52:22;3.50;;;2.20;;
50681;SDS011;36779;52.168;20.878;2023-08-21T12:54:55;3.50;;;1.90;;
50681;SDS011;36779;52.168;20.878;2023-08-21T12:57:28;2.90;;;1.80;;
50681;SDS011;36779;52.168;20.878;2023-08-21T13:00:00;4.60;;;2.00;;
50681;SDS011;36779;52.168;20.878;2023-08-21T13:02:33;3.90;;;2.10;;
50681;SDS011;36779;52.168;20.878;2023-08-21T13:05:09;3.20;;;1.90;;
50681;SDS011;36779;52.168;20.878;2023-08-21T13:07:42;4.10;;;2.00;;
50681;SDS011;36779;52.168;20.878;2023-08-21T13:10:15;3.10;;;1.90;;
50681;SDS011;36779;52.168;20.878;2023-08-21T13:12:47;2.20;;;1.80;;
50681;SDS011;36779;52.168;20.878;2023-08-21T13:15:21;4.60;;;2.20;;
50681;SDS011;36779;52.168;20.878;2023-08-21T13:17:53;6.00;;;2.00;;
50681;SDS011;36779;52.168;20.878;2023-08-21T13:20:26;2.80;;;1.90;;
50681;SDS011;36779;52.168;20.878;2023-08-21T13:22:58;3.20;;;1.90;;
50681;SDS011;36779;52.168;20.878;2023-08-21T13:25:30;2.30;;;2.00;;
50681;SDS011;36779;52.168;20.878;2023-08-21T13:28:03;2.10;;;1.70;;
50681;SDS011;36779;52.168;20.878;2023-08-21T13:30:39;3.20;;;2.10;;
50681;SDS011;36779;52.168;20.878;2023-08-21T13:33:13;2.60;;;2.00;;
50681;SDS011;36779;52.168;20.878;2023-08-21T13:35:47;3.30;;;1.80;;
50681;SDS011;36779;52.168;20.878;2023-08-21T13:38:19;3.00;;;2.00;;
50681;SDS011;36779;52.168;20.878;2023-08-21T13:40:52;3.50;;;1.80;;
50681;SDS011;36779;52.168;20.878;2023-08-21T13:43:24;4.40;;;2.10;;
50681;SDS011;36779;52.168;20.878;2023-08-21T13:48:33;3.50;;;2.00;;
50681;SDS011;36779;52.168;20.878;2023-08-21T13:51:05;3.30;;;1.90;;
50681;SDS011;36779;52.168;20.878;2023-08-21T13:53:40;3.60;;;1.80;;
50681;SDS011;36779;52.168;20.878;2023-08-21T13:56:13;3.90;;;2.00;;
50681;SDS011;36779;52.168;20.878;2023-08-21T13:58:45;2.50;;;1.90;;
50681;SDS011;36779;52.168;20.878;2023-08-21T14:01:18;2.80;;;2.00;;
50681;SDS011;36779;52.168;20.878;2023-08-21T14:03:50;2.90;;;2.00;;
50681;SDS011;36779;52.168;20.878;2023-08-21T14:06:23;6.10;;;1.70;;
50681;SDS011;36779;52.168;20.878;2023-08-21T14:08:56;3.30;;;2.00;;
50681;SDS011;36779;52.168;20.878;2023-08-21T14:11:29;4.70;;;2.00;;
50681;SDS011;36779;52.168;20.878;2023-08-21T14:14:01;3.10;;;2.00;;
50681;SDS011;36779;52.168;20.878;2023-08-21T14:16:33;5.90;;;2.00;;
50681;SDS011;36779;52.168;20.878;2023-08-21T14:19:06;4.60;;;2.00;;
50681;SDS011;36779;52.168;20.878;2023-08-21T14:21:40;3.20;;;1.60;;
50681;SDS011;36779;52.168;20.878;2023-08-21T14:24:13;2.00;;;1.80;;
50681;SDS011;36779;52.168;20.878;2023-08-21T14:26:46;4.30;;;1.80;;
50681;SDS011;36779;52.168;20.878;2023-08-21T14:29:18;1.80;;;1.60;;
50681;SDS011;36779;52.168;20.878;2023-08-21T14:31:50;2.90;;;1.90;;
50681;SDS011;36779;52.168;20.878;2023-08-21T14:34:23;2.40;;;1.80;;
50681;SDS011;36779;52.168;20.878;2023-08-21T14:36:55;2.20;;;1.60;;
50681;SDS011;36779;52.168;20.878;2023-08-21T14:39:28;2.50;;;1.80;;
50681;SDS011;36779;52.168;20.878;2023-08-21T14:42:01;4.40;;;1.60;;
50681;SDS011;36779;52.168;20.878;2023-08-21T14:44:37;2.60;;;1.60;;
50681;SDS011;36779;52.168;20.878;2023-08-21T14:47:09;2.00;;;1.60;;
50681;SDS011;36779;52.168;20.878;2023-08-21T14:49:42;3.60;;;1.80;;
50681;SDS011;36779;52.168;20.878;2023-08-21T14:52:14;3.90;;;1.90;;
50681;SDS011;36779;52.168;20.878;2023-08-21T14:54:46;2.70;;;1.50;;
50681;SDS011;36779;52.168;20.878;2023-08-21T14:57:20;2.70;;;1.70;;
50681;SDS011;36779;52.168;20.878;2023-08-21T14:59:53;3.30;;;2.00;;
50681;SDS011;36779;52.168;20.878;2023-08-21T15:02:25;6.90;;;2.40;;
50681;SDS011;36779;52.168;20.878;2023-08-21T15:04:58;3.70;;;1.90;;
50681;SDS011;36779;52.168;20.878;2023-08-21T15:07:35;5.30;;;1.70;;
50681;SDS011;36779;52.168;20.878;2023-08-21T15:10:09;2.90;;;1.70;;